createdAt,value
2023-11-02T00:00:00.721Z,98425.38
2023-11-02T00:02:29.782Z,98369.81
2023-11-02T00:04:59.134Z,98397.84
2023-11-02T00:07:30.516Z,98388.91
2023-11-02T00:10:00.362Z,98383.94
2023-11-02T00:12:31.321Z,98392.88
2023-11-02T00:15:01.776Z,98384.28
2023-11-02T00:17:45.876Z,98375.56
2023-11-02T00:20:40.610Z,98365.53
2023-11-02T00:23:10.441Z,98346.34
2023-11-02T00:25:55.308Z,98349.09
2023-11-02T00:28:23.883Z,98334.34
2023-11-02T00:30:52.567Z,98328.06
2023-11-02T00:33:23.017Z,98328.88
2023-11-02T00:35:52.429Z,98329.25
2023-11-02T00:38:25.429Z,98324.69
2023-11-02T00:40:55.932Z,98324.38
2023-11-02T00:43:24.334Z,98286.06
2023-11-02T00:45:54.064Z,98302.09
2023-11-02T00:48:25.670Z,98307.31
2023-11-02T00:51:25.234Z,98315.69
2023-11-02T00:53:55.529Z,98300.22
2023-11-02T00:56:26.602Z,98293.94
2023-11-02T00:58:55.605Z,98293.28
2023-11-02T01:01:24.935Z,98283.88
2023-11-02T01:03:55.833Z,98266.34
2023-11-02T01:06:26.144Z,98254.50
2023-11-02T01:08:56.929Z,98245.34
2023-11-02T01:11:31.585Z,98247.09
2023-11-02T01:13:59.935Z,98243.81
2023-11-02T01:16:28.997Z,98232.53
2023-11-02T01:19:00.163Z,98221.13
2023-11-02T01:21:31.498Z,98219.50
2023-11-02T01:24:04.322Z,98215.22
2023-11-02T01:26:58.864Z,98211.06
2023-11-02T01:29:29.652Z,98142.25
2023-11-02T01:31:58.136Z,98195.63
2023-11-02T01:34:27.716Z,98179.34
2023-11-02T01:36:57.055Z,98172.50
2023-11-02T01:39:55.408Z,98177.88
2023-11-02T01:42:29.497Z,98172.50
2023-11-02T01:45:04.820Z,98161.03
2023-11-02T01:47:54.243Z,98106.72
2023-11-02T01:50:31.033Z,98156.09
2023-11-02T01:53:10.355Z,98147.25
2023-11-02T01:56:01.555Z,98142.22
2023-11-02T01:58:34.242Z,98139.31
2023-11-02T02:01:11.028Z,98129.25
2023-11-02T02:03:46.854Z,98129.50
2023-11-02T02:06:20.979Z,98128.28
2023-11-02T02:08:57.222Z,98120.00
2023-11-02T02:11:39.994Z,98115.28
2023-11-02T02:14:16.327Z,98104.88
2023-11-02T02:16:48.805Z,98105.53
2023-11-02T02:19:39.486Z,98097.00
2023-11-02T02:22:11.237Z,98097.88
2023-11-02T02:24:47.309Z,98060.81
2023-11-02T02:28:00.508Z,98079.00
2023-11-02T02:30:49.433Z,98040.09
2023-11-02T02:33:42.746Z,98060.28
2023-11-02T02:36:14.782Z,98057.38
2023-11-02T02:38:47.686Z,97967.41
2023-11-02T02:41:18.237Z,98048.66
2023-11-02T02:43:47.336Z,98051.34
2023-11-02T02:46:18.312Z,98047.91
2023-11-02T02:48:48.311Z,98037.25
2023-11-02T02:51:18.769Z,98045.84
2023-11-02T02:53:47.309Z,98042.81
2023-11-02T02:56:16.500Z,98042.06
2023-11-02T02:58:46.777Z,98022.69
2023-11-02T03:01:15.710Z,98022.97
2023-11-02T03:03:44.207Z,98003.44
2023-11-02T03:06:13.358Z,98015.41
2023-11-02T03:08:44.368Z,98009.84
2023-11-02T03:11:21.460Z,97985.41
2023-11-02T03:13:51.466Z,97994.31
2023-11-02T03:16:21.936Z,97990.03
2023-11-02T03:18:50.448Z,97977.69
2023-11-02T03:21:19.014Z,97962.13
2023-11-02T03:23:52.712Z,97978.31
2023-11-02T03:26:26.519Z,97971.34
2023-11-02T03:29:04.557Z,97957.88
2023-11-02T03:31:42.953Z,97946.06
2023-11-02T03:34:16.932Z,97927.44
2023-11-02T03:37:06.933Z,97905.47
2023-11-02T03:39:56.012Z,97878.16
2023-11-02T03:42:32.982Z,97877.63
2023-11-02T03:45:06.817Z,97876.25
2023-11-02T03:47:45.883Z,97840.72
2023-11-02T03:50:31.832Z,97836.81
2023-11-02T03:53:06.750Z,97824.75
2023-11-02T03:55:53.453Z,97799.59
2023-11-02T03:58:32.937Z,97788.03
2023-11-02T04:01:13.040Z,97796.88
2023-11-02T04:03:45.455Z,97787.75
2023-11-02T04:06:18.508Z,97788.78
2023-11-02T04:08:47.927Z,97776.47
2023-11-02T04:11:24.861Z,97779.09
2023-11-02T04:14:06.844Z,97766.84
2023-11-02T04:16:35.187Z,97764.16
2023-11-02T04:19:05.351Z,97769.25
2023-11-02T04:21:33.870Z,97771.72
2023-11-02T04:24:02.324Z,97733.03
2023-11-02T04:26:33.156Z,97764.78
2023-11-02T04:29:01.453Z,97761.63
2023-11-02T04:31:30.026Z,97752.28
2023-11-02T04:33:58.352Z,97728.16
2023-11-02T04:36:26.694Z,97720.91
2023-11-02T04:38:54.995Z,97704.56
2023-11-02T04:41:23.294Z,97705.34
2023-11-02T04:43:53.413Z,97645.72
2023-11-02T04:46:21.737Z,97698.38
2023-11-02T04:48:50.128Z,97680.84
2023-11-02T04:51:18.470Z,97703.47
2023-11-02T04:53:46.712Z,97691.97
2023-11-02T04:56:14.924Z,97694.69
2023-11-02T04:58:44.566Z,97678.88
2023-11-02T05:01:15.630Z,97673.22
2023-11-02T05:03:43.909Z,97683.44
2023-11-02T05:06:12.737Z,97686.13
2023-11-02T05:08:40.996Z,97696.00
2023-11-02T05:11:09.304Z,97684.97
2023-11-02T05:13:37.556Z,97686.09
2023-11-02T05:16:06.574Z,97680.19
2023-11-02T05:18:36.159Z,97683.16
2023-11-02T05:21:04.735Z,97656.81
2023-11-02T05:23:33.054Z,97684.47
2023-11-02T05:26:01.280Z,97696.56
2023-11-02T05:28:29.468Z,97700.28
2023-11-02T05:30:57.677Z,97699.47
2023-11-02T05:33:26.037Z,97694.38
2023-11-02T05:35:55.647Z,97693.81
2023-11-02T05:38:23.965Z,97713.66
2023-11-02T05:40:52.202Z,97710.97
2023-11-02T05:43:20.410Z,97706.94
2023-11-02T05:45:49.684Z,97691.41
2023-11-02T05:48:17.945Z,97639.31
2023-11-02T05:50:46.195Z,97661.06
2023-11-02T05:53:15.761Z,97674.97
2023-11-02T05:55:44.019Z,97680.34
2023-11-02T05:58:12.249Z,97663.47
2023-11-02T06:00:46.586Z,97680.09
2023-11-02T06:03:14.799Z,97656.25
2023-11-02T06:05:43.065Z,97664.31
2023-11-02T06:08:11.337Z,97670.50
2023-11-02T06:10:41.035Z,97679.59
2023-11-02T06:13:09.337Z,97680.94
2023-11-02T06:15:38.073Z,97680.88
2023-11-02T06:18:09.872Z,97664.25
2023-11-02T06:20:38.586Z,97668.56
2023-11-02T06:23:07.414Z,97664.50
2023-11-02T06:25:35.663Z,97654.03
2023-11-02T06:28:05.984Z,97667.72
2023-11-02T06:30:35.954Z,97664.47
2023-11-02T06:33:06.494Z,97659.06
2023-11-02T06:35:34.872Z,97679.94
2023-11-02T06:38:04.690Z,97679.13
2023-11-02T06:40:32.981Z,97581.63
2023-11-02T06:43:01.441Z,97658.81
2023-11-02T06:45:36.340Z,97648.84
2023-11-02T06:48:05.021Z,97646.19
2023-11-02T06:50:33.382Z,97596.97
2023-11-02T06:53:01.701Z,97629.66
2023-11-02T06:55:37.451Z,97615.66
2023-11-02T06:58:07.278Z,97612.09
2023-11-02T07:00:38.217Z,97607.63
2023-11-02T07:03:06.752Z,97602.28
2023-11-02T07:05:35.153Z,97605.72
2023-11-02T07:08:06.596Z,97595.28
2023-11-02T07:10:34.961Z,97602.78
2023-11-02T07:13:06.178Z,97597.22
2023-11-02T07:15:39.226Z,97598.34
2023-11-02T07:18:07.878Z,97598.09
2023-11-02T07:20:36.236Z,97600.25
2023-11-02T07:23:04.603Z,97591.16
2023-11-02T07:25:32.860Z,97568.63
2023-11-02T07:28:01.149Z,97582.31
2023-11-02T07:30:29.407Z,97516.00
2023-11-02T07:32:59.210Z,97585.25
2023-11-02T07:35:27.521Z,97543.13
2023-11-02T07:37:58.504Z,97563.28
2023-11-02T07:40:26.963Z,97563.28
2023-11-02T07:42:55.200Z,97535.13
2023-11-02T07:45:23.560Z,97557.94
2023-11-02T07:47:51.899Z,97556.88
2023-11-02T07:50:21.599Z,97551.25
2023-11-02T07:52:49.828Z,97549.09
2023-11-02T07:55:18.039Z,97583.16
2023-11-02T07:57:47.203Z,97543.47
2023-11-02T08:00:17.310Z,97546.72
2023-11-02T08:02:45.569Z,97537.06
2023-11-02T08:05:14.229Z,97515.88
2023-11-02T08:07:43.858Z,97508.09
2023-11-02T08:10:12.274Z,97491.75
2023-11-02T08:12:40.589Z,97492.03
2023-11-02T08:15:09.779Z,97469.47
2023-11-02T08:17:40.439Z,97494.44
2023-11-02T08:20:11.331Z,97480.47
2023-11-02T08:22:39.629Z,97485.00
2023-11-02T08:25:10.414Z,97472.41
2023-11-02T08:27:41.606Z,97426.31
2023-11-02T08:30:10.354Z,97455.19
2023-11-02T08:32:38.933Z,97437.00
2023-11-02T08:35:09.001Z,97496.25
2023-11-02T08:37:37.366Z,97481.75
2023-11-02T08:40:06.996Z,97452.47
2023-11-02T08:42:36.699Z,97432.59
2023-11-02T08:45:06.321Z,97459.69
2023-11-02T08:47:34.644Z,97447.38
2023-11-02T08:50:04.128Z,97442.78
2023-11-02T08:52:32.377Z,97424.00
2023-11-02T08:55:01.674Z,97426.38
2023-11-02T08:57:30.804Z,97447.88
2023-11-02T09:00:02.302Z,97476.06
2023-11-02T09:02:32.834Z,97471.19
2023-11-02T09:05:01.889Z,97448.41
2023-11-02T09:07:32.085Z,97451.34
2023-11-02T09:10:00.347Z,97421.56
2023-11-02T09:12:29.061Z,97449.19
2023-11-02T09:14:57.812Z,97461.28
2023-11-02T09:17:27.697Z,97453.22
2023-11-02T09:19:56.177Z,97451.09
2023-11-02T09:22:27.186Z,97437.09
2023-11-02T09:24:56.140Z,97422.31
2023-11-02T09:27:24.555Z,97429.28
2023-11-02T09:29:52.837Z,97404.06
2023-11-02T09:32:21.126Z,97402.72
2023-11-02T09:34:50.674Z,97394.38
2023-11-02T09:37:18.945Z,97397.84
2023-11-02T09:39:47.299Z,97372.13
2023-11-02T09:42:15.735Z,97361.59
2023-11-02T09:44:44.056Z,97387.34
2023-11-02T09:47:12.500Z,97392.97
2023-11-02T09:49:40.909Z,97396.97
2023-11-02T09:52:11.850Z,97388.38
2023-11-02T09:54:46.302Z,97351.59
2023-11-02T09:57:24.523Z,97307.41
2023-11-02T09:59:52.919Z,97336.97
2023-11-02T10:02:23.841Z,97350.41
2023-11-02T10:04:52.142Z,97331.53
2023-11-02T10:07:25.199Z,97344.22
2023-11-02T10:09:53.428Z,97364.88
2023-11-02T10:12:24.875Z,97344.59
2023-11-02T10:14:53.307Z,97358.84
2023-11-02T10:17:21.604Z,97357.06
2023-11-02T10:19:52.857Z,97363.16
2023-11-02T10:22:22.628Z,97340.56
2023-11-02T10:24:52.272Z,97321.41
2023-11-02T10:27:22.202Z,97357.94
2023-11-02T10:29:51.268Z,97368.06
2023-11-02T10:32:22.362Z,97360.97
2023-11-02T10:34:53.207Z,97370.06
2023-11-02T10:37:32.714Z,97336.19
2023-11-02T10:40:02.437Z,97352.41
2023-11-02T10:42:31.198Z,97355.50
2023-11-02T10:45:00.835Z,97302.25
2023-11-02T10:47:31.802Z,97345.59
2023-11-02T10:50:01.453Z,97337.72
2023-11-02T10:52:31.968Z,97305.25
2023-11-02T10:55:10.737Z,97350.41
2023-11-02T10:57:40.217Z,97359.78
2023-11-02T11:00:10.015Z,97401.50
2023-11-02T11:02:39.151Z,97409.28
2023-11-02T11:05:09.394Z,97411.88
2023-11-02T11:07:38.778Z,97415.38
2023-11-02T11:10:12.678Z,97413.88
2023-11-02T11:12:41.962Z,97411.59
2023-11-02T11:15:11.728Z,97399.66
2023-11-02T11:17:43.660Z,97408.03
2023-11-02T11:20:13.775Z,97416.44
2023-11-02T11:22:46.040Z,97409.59
2023-11-02T11:25:16.182Z,97392.38
2023-11-02T11:27:44.826Z,97384.44
2023-11-02T11:30:37.308Z,97372.78
2023-11-02T11:33:05.767Z,97359.56
2023-11-02T11:35:34.188Z,97365.97
2023-11-02T11:38:03.448Z,97372.19
2023-11-02T11:40:44.925Z,97352.75
2023-11-02T11:43:14.422Z,97323.06
2023-11-02T11:45:51.384Z,97189.19
2023-11-02T11:48:40.284Z,97295.13
2023-11-02T11:51:40.934Z,97295.25
2023-11-02T11:54:10.850Z,97280.50
2023-11-02T11:56:40.556Z,97257.84
2023-11-02T11:59:08.998Z,97249.59
2023-11-02T12:01:38.141Z,97246.63
2023-11-02T12:04:08.870Z,97290.09
2023-11-02T12:06:45.057Z,97285.88
2023-11-02T12:09:14.259Z,97291.16
2023-11-02T12:11:45.792Z,97322.56
2023-11-02T12:14:16.421Z,97342.47
2023-11-02T12:16:44.928Z,97328.53
2023-11-02T12:19:13.434Z,97318.38
2023-11-02T12:21:42.478Z,97320.59
2023-11-02T12:24:11.887Z,97298.31
2023-11-02T12:26:41.774Z,97273.00
2023-11-02T12:29:12.890Z,97262.41
2023-11-02T12:31:42.788Z,97273.25
2023-11-02T12:34:13.410Z,97269.56
2023-11-02T12:36:42.695Z,97272.53
2023-11-02T12:39:15.193Z,97249.59
2023-11-02T12:41:44.995Z,97232.81
2023-11-02T12:44:16.903Z,97225.81
2023-11-02T12:46:46.275Z,97268.19
2023-11-02T12:49:18.243Z,97293.81
2023-11-02T12:52:09.040Z,97285.78
2023-11-02T12:54:38.344Z,97301.72
2023-11-02T12:57:08.493Z,97302.81
2023-11-02T12:59:43.555Z,97296.91
2023-11-02T13:02:14.772Z,97302.66
2023-11-02T13:04:50.598Z,97315.88
2023-11-02T13:07:22.989Z,97276.59
2023-11-02T13:10:04.626Z,97288.19
2023-11-02T13:12:35.629Z,97296.69
2023-11-02T13:15:09.817Z,97285.41
2023-11-02T13:17:40.381Z,97271.66
2023-11-02T13:20:10.611Z,97214.53
2023-11-02T13:22:39.395Z,97294.97
2023-11-02T13:25:08.726Z,97301.66
2023-11-02T13:27:37.993Z,97316.22
2023-11-02T13:30:10.780Z,97287.75
2023-11-02T13:32:40.228Z,97273.00
2023-11-02T13:35:09.571Z,97291.59
2023-11-02T13:37:38.183Z,97270.16
2023-11-02T13:40:11.730Z,97298.94
2023-11-02T13:42:40.905Z,97299.16
2023-11-02T13:45:11.993Z,97295.50
2023-11-02T13:47:41.957Z,97290.13
2023-11-02T13:50:15.421Z,97289.16
2023-11-02T13:52:44.714Z,97278.16
2023-11-02T13:55:14.720Z,97274.94
2023-11-02T13:57:43.061Z,97255.50
2023-11-02T14:00:16.818Z,97232.16
2023-11-02T14:02:45.422Z,97220.66
2023-11-02T14:05:14.113Z,97226.91
2023-11-02T14:07:43.121Z,97204.72
2023-11-02T14:10:11.868Z,97249.19
2023-11-02T14:12:40.181Z,97246.84
2023-11-02T14:15:09.649Z,97244.88
2023-11-02T14:17:39.764Z,97199.28
2023-11-02T14:20:10.759Z,97224.03
2023-11-02T14:22:39.029Z,97131.22
2023-11-02T14:25:09.085Z,97252.09
2023-11-02T14:27:37.985Z,97261.22
2023-11-02T14:30:08.489Z,97274.34
2023-11-02T14:32:36.809Z,97279.44
2023-11-02T14:35:07.597Z,97290.41
2023-11-02T14:37:35.910Z,97289.50
2023-11-02T14:40:05.050Z,97275.50
2023-11-02T14:42:33.371Z,97279.25
2023-11-02T14:45:01.762Z,97285.06
2023-11-02T14:47:30.010Z,97282.66
2023-11-02T14:49:58.537Z,97271.16
2023-11-02T14:52:32.020Z,97271.16
2023-11-02T14:55:04.819Z,97248.34
2023-11-02T14:57:34.503Z,97273.09
2023-11-02T15:00:05.370Z,97276.31
2023-11-02T15:02:34.513Z,97260.06
2023-11-02T15:05:03.614Z,97213.16
2023-11-02T15:07:35.935Z,97252.09
2023-11-02T15:10:04.457Z,97210.25
2023-11-02T15:12:35.319Z,97229.16
2023-11-02T15:15:03.767Z,97217.03
2023-11-02T15:17:32.293Z,97223.94
2023-11-02T15:20:05.483Z,97228.69
2023-11-02T15:22:35.672Z,97224.88
2023-11-02T15:25:05.823Z,97215.28
2023-11-02T15:27:35.501Z,97215.63
2023-11-02T15:30:07.148Z,97218.56
2023-11-02T15:32:38.108Z,97213.59
2023-11-02T15:35:07.684Z,97206.53
2023-11-02T15:37:37.404Z,97210.41
2023-11-02T15:40:07.584Z,97212.66
2023-11-02T15:42:36.194Z,97207.06
2023-11-02T15:45:07.001Z,97208.25
2023-11-02T15:47:36.714Z,97190.41
2023-11-02T15:50:08.563Z,97210.91
2023-11-02T15:52:44.306Z,97213.09
2023-11-02T15:55:12.723Z,97176.44
2023-11-02T15:57:43.710Z,97229.59
2023-11-02T16:00:13.472Z,97225.69
2023-11-02T16:02:43.690Z,97238.09
2023-11-02T16:05:12.330Z,97231.97
2023-11-02T16:07:42.140Z,97136.44
2023-11-02T16:10:14.318Z,97222.19
2023-11-02T16:12:43.032Z,97239.13
2023-11-02T16:15:12.647Z,97248.81
2023-11-02T16:17:42.579Z,97176.72
2023-11-02T16:20:18.225Z,97240.28
2023-11-02T16:22:48.879Z,97243.22
2023-11-02T16:25:19.542Z,97223.91
2023-11-02T16:27:48.502Z,97222.13
2023-11-02T16:30:17.690Z,97210.09
2023-11-02T16:32:46.178Z,97217.94
2023-11-02T16:35:28.347Z,97223.09
2023-11-02T16:38:05.541Z,97229.38
2023-11-02T16:40:35.129Z,97240.72
2023-11-02T16:43:05.173Z,97252.28
2023-11-02T16:45:37.135Z,97239.72
2023-11-02T16:48:07.072Z,97244.53
2023-11-02T16:50:35.334Z,97241.34
2023-11-02T16:53:05.058Z,97229.31
2023-11-02T16:55:35.594Z,97228.19
2023-11-02T16:58:03.896Z,97232.59
2023-11-02T17:00:32.240Z,97230.94
2023-11-02T17:03:00.573Z,97240.31
2023-11-02T17:05:28.905Z,97224.78
2023-11-02T17:08:01.460Z,97219.47
2023-11-02T17:10:31.604Z,97236.47
2023-11-02T17:12:59.860Z,97239.44
2023-11-02T17:15:28.447Z,97241.06
2023-11-02T17:17:56.819Z,97237.94
2023-11-02T17:20:27.767Z,97236.84
2023-11-02T17:22:56.039Z,97239.53
2023-11-02T17:25:24.287Z,97223.75
2023-11-02T17:27:54.847Z,97237.44
2023-11-02T17:30:23.505Z,97233.94
2023-11-02T17:32:53.934Z,97244.16
2023-11-02T17:35:23.353Z,97255.16
2023-11-02T17:37:51.769Z,97256.78
2023-11-02T17:40:22.651Z,97266.19
2023-11-02T17:42:53.519Z,97271.81
2023-11-02T17:45:22.507Z,97263.50
2023-11-02T17:47:51.006Z,97258.16
2023-11-02T17:50:19.350Z,97262.97
2023-11-02T17:52:48.997Z,97265.66
2023-11-02T17:55:17.806Z,97275.53
2023-11-02T17:57:46.129Z,97272.59
2023-11-02T18:00:16.895Z,97254.34
2023-11-02T18:02:45.496Z,97267.22
2023-11-02T18:05:14.106Z,97276.09
2023-11-02T18:07:42.686Z,97265.09
2023-11-02T18:10:11.355Z,97268.06
2023-11-02T18:12:39.936Z,97285.78
2023-11-02T18:15:09.240Z,97285.53
2023-11-02T18:17:41.209Z,97284.44
2023-11-02T18:20:10.438Z,97275.09
2023-11-02T18:22:38.675Z,97302.97
2023-11-02T18:25:07.469Z,97315.31
2023-11-02T18:27:37.152Z,97312.31
2023-11-02T18:30:06.685Z,97318.00
2023-11-02T18:32:36.009Z,97317.19
2023-11-02T18:35:06.444Z,97318.25
2023-11-02T18:37:34.945Z,97331.69
2023-11-02T18:40:03.818Z,97344.03
2023-11-02T18:42:32.193Z,97344.06
2023-11-02T18:45:00.484Z,97354.78
2023-11-02T18:47:28.771Z,97345.16
2023-11-02T18:49:58.763Z,97351.84
2023-11-02T18:52:28.299Z,97360.97
2023-11-02T18:54:58.351Z,97354.28
2023-11-02T18:57:27.998Z,97357.78
2023-11-02T18:59:56.289Z,97342.78
2023-11-02T19:02:24.551Z,97345.44
2023-11-02T19:04:53.600Z,97352.69
2023-11-02T19:07:21.893Z,97339.81
2023-11-02T19:09:51.542Z,97345.72
2023-11-02T19:12:20.486Z,97342.22
2023-11-02T19:14:48.708Z,97337.13
2023-11-02T19:17:17.768Z,97332.81
2023-11-02T19:19:46.357Z,97335.22
2023-11-02T19:22:16.138Z,97332.56
2023-11-02T19:24:44.884Z,97329.34
2023-11-02T19:27:16.793Z,97325.03
2023-11-02T19:29:45.166Z,97329.03
2023-11-02T19:32:13.411Z,97332.22
2023-11-02T19:34:41.801Z,97332.75
2023-11-02T19:37:11.381Z,97335.09
2023-11-02T19:39:39.673Z,97346.31
2023-11-02T19:42:07.979Z,97352.97
2023-11-02T19:44:41.059Z,97365.78
2023-11-02T19:47:09.317Z,97365.50
2023-11-02T19:49:37.578Z,97368.66
2023-11-02T19:52:06.154Z,97359.50
2023-11-02T19:54:34.561Z,97370.41
2023-11-02T19:57:03.769Z,97373.84
2023-11-02T19:59:32.025Z,97369.22
2023-11-02T20:02:01.592Z,97375.06
2023-11-02T20:04:29.893Z,97378.22
2023-11-02T20:06:59.019Z,97376.59
2023-11-02T20:09:29.389Z,97380.56
2023-11-02T20:11:57.804Z,97384.53
2023-11-02T20:14:26.096Z,97381.28
2023-11-02T20:16:54.352Z,97380.34
2023-11-02T20:19:25.637Z,97372.00
2023-11-02T20:21:54.640Z,97376.47
2023-11-02T20:24:23.756Z,97363.34
2023-11-02T20:26:52.088Z,97350.78
2023-11-02T20:29:20.555Z,97321.84
2023-11-02T20:31:48.873Z,97342.94
2023-11-02T20:34:17.738Z,97343.19
2023-11-02T20:36:47.423Z,97320.25
2023-11-02T20:39:15.794Z,97327.16
2023-11-02T20:41:44.036Z,97319.59
2023-11-02T20:44:12.468Z,97319.31
2023-11-02T20:46:41.663Z,97318.50
2023-11-02T20:49:10.294Z,97289.34
2023-11-02T20:51:38.792Z,97307.28
2023-11-02T20:54:10.274Z,97300.03
2023-11-02T20:56:42.902Z,97305.34
2023-11-02T20:59:11.491Z,97301.69
2023-11-02T21:01:43.756Z,97298.44
2023-11-02T21:04:13.348Z,97293.31
2023-11-02T21:06:51.621Z,97276.25
2023-11-02T21:09:27.959Z,97287.16
2023-11-02T21:11:56.466Z,97282.56
2023-11-02T21:14:25.092Z,97283.31
2023-11-02T21:16:53.691Z,97310.47
2023-11-02T21:19:21.994Z,97288.31
2023-11-02T21:21:51.201Z,97286.13
2023-11-02T21:24:19.539Z,97276.22
2023-11-02T21:26:50.562Z,97262.78
2023-11-02T21:29:18.941Z,97261.72
2023-11-02T21:31:47.241Z,97265.22
2023-11-02T21:34:15.482Z,97246.97
2023-11-02T21:36:44.649Z,97255.63
2023-11-02T21:39:13.501Z,97243.03
2023-11-02T21:41:41.759Z,97235.84
2023-11-02T21:44:11.351Z,97232.56
2023-11-02T21:46:39.808Z,97230.91
2023-11-02T21:49:09.388Z,97233.56
2023-11-02T21:51:38.935Z,97231.97
2023-11-02T21:54:07.631Z,97223.47
2023-11-02T21:56:36.366Z,97216.34
2023-11-02T21:59:09.215Z,97194.81
2023-11-02T22:01:39.502Z,97186.81
2023-11-02T22:04:08.134Z,97226.63
2023-11-02T22:06:37.382Z,97232.69
2023-11-02T22:09:06.124Z,97228.84
2023-11-02T22:11:34.362Z,97229.31
2023-11-02T22:14:04.935Z,97244.72
2023-11-02T22:16:33.493Z,97246.44
2023-11-02T22:19:03.143Z,97258.13
2023-11-02T22:21:31.437Z,97264.72
2023-11-02T22:24:00.413Z,97277.78
2023-11-02T22:26:28.800Z,97270.63
2023-11-02T22:28:57.617Z,97258.13
2023-11-02T22:31:26.879Z,97269.03
2023-11-02T22:33:55.458Z,97277.31
2023-11-02T22:36:25.536Z,97290.06
2023-11-02T22:38:58.808Z,97295.31
2023-11-02T22:41:27.554Z,97301.63
2023-11-02T22:43:55.754Z,97296.47
2023-11-02T22:46:23.961Z,97307.91
2023-11-02T22:48:52.308Z,97318.16
2023-11-02T22:51:20.603Z,97314.91
2023-11-02T22:53:50.192Z,97292.66
2023-11-02T22:56:18.533Z,97318.28
2023-11-02T22:58:46.885Z,97323.13
2023-11-02T23:01:17.234Z,97317.56
2023-11-02T23:03:45.582Z,97325.38
2023-11-02T23:06:13.905Z,97328.06
2023-11-02T23:08:42.158Z,97322.28
2023-11-02T23:11:11.878Z,97327.69
2023-11-02T23:13:40.806Z,97326.78
2023-11-02T23:16:10.143Z,97322.56
2023-11-02T23:18:38.425Z,97314.81
2023-11-02T23:21:07.287Z,97313.09
2023-11-02T23:23:35.757Z,97322.06
2023-11-02T23:26:06.376Z,97311.59
2023-11-02T23:28:36.480Z,97302.31
2023-11-02T23:31:06.360Z,97291.56
2023-11-02T23:33:34.766Z,97296.16
2023-11-02T23:36:03.539Z,97291.41
2023-11-02T23:38:34.018Z,97299.66
2023-11-02T23:41:02.348Z,97298.34
2023-11-02T23:43:30.616Z,97288.75
2023-11-02T23:46:00.719Z,97294.31
2023-11-02T23:48:29.085Z,97286.91
2023-11-02T23:50:57.386Z,97291.91
2023-11-02T23:53:25.545Z,97286.81
2023-11-02T23:55:53.777Z,97282.56
2023-11-02T23:58:22.013Z,97286.06
